Time;durP1;ratioP1;P1;durP2;ratioP2;P2;SDS_P1;SDS_P2;PMS_P1;PMS_P2;Temp;Humidity;BMP_temperature;BMP_pressure;BME280_temperature;BME280_humidity;BME280_pressure;Samples;Min_cycle;Max_cycle;Signal;HPM_P1;HPM_P2
2023/11/08 00:01:16;;;;;;;6.25;5.45;;;;;;;;;;5053278;28;20447;-54
2023/11/08 00:03:42;;;;;;;5.97;4.95;;;;;;;;;;5044660;28;20040;-54
2023/11/08 00:06:08;;;;;;;7.35;5.32;;;;;;;;;;5033310;28;20029;-54
2023/11/08 00:08:34;;;;;;;7.22;5.85;;;;;;;;;;5033128;28;20116;-52
2023/11/08 00:11:00;;;;;;;5.32;4.70;;;;;;;;;;5033138;28;20052;-52
2023/11/08 00:13:26;;;;;;;6.22;4.97;;;;;;;;;;5033645;28;20140;-53
2023/11/08 00:15:52;;;;;;;6.82;4.93;;;;;;;;;;5032875;28;20115;-50
2023/11/08 00:18:18;;;;;;;7.50;4.82;;;;;;;;;;5033159;28;20026;-53
2023/11/08 00:20:45;;;;;;;5.68;4.43;;;;;;;;;;5032878;28;20390;-50
2023/11/08 00:23:11;;;;;;;5.13;4.55;;;;;;;;;;5032999;28;20021;-52
2023/11/08 00:25:37;;;;;;;8.60;5.28;;;;;;;;;;5045763;28;20037;-54
2023/11/08 00:28:03;;;;;;;5.72;4.38;;;;;;;;;;5033438;28;20052;-52
2023/11/08 00:30:29;;;;;;;6.50;4.35;;;;;;;;;;5057032;28;20134;-53
2023/11/08 00:32:56;;;;;;;6.13;3.60;;;;;;;;;;5055020;28;20385;-54
2023/11/08 00:35:22;;;;;;;7.53;3.70;;;;;;;;;;5057197;28;20081;-52
2023/11/08 00:37:48;;;;;;;3.97;3.58;;;;;;;;;;5072985;28;20036;-50
2023/11/08 00:40:14;;;;;;;10.32;4.60;;;;;;;;;;5072107;28;20028;-50
2023/11/08 00:42:40;;;;;;;4.28;3.63;;;;;;;;;;5060265;28;20112;-51
2023/11/08 00:45:07;;;;;;;5.50;3.97;;;;;;;;;;5052553;28;20029;-51
2023/11/08 00:47:33;;;;;;;6.68;4.15;;;;;;;;;;5051317;28;20021;-52
2023/11/08 00:49:59;;;;;;;4.57;3.85;;;;;;;;;;5052619;28;20020;-54
2023/11/08 00:52:25;;;;;;;5.50;3.83;;;;;;;;;;5052508;28;20354;-54
2023/11/08 00:54:51;;;;;;;5.97;4.47;;;;;;;;;;5053525;28;20101;-53
2023/11/08 00:57:17;;;;;;;5.18;3.85;;;;;;;;;;5052212;28;20021;-54
2023/11/08 00:59:43;;;;;;;5.93;4.10;;;;;;;;;;5052185;28;20512;-53
2023/11/08 01:02:09;;;;;;;4.43;3.78;;;;;;;;;;5052082;28;20141;-52
2023/11/08 01:04:35;;;;;;;4.18;3.75;;;;;;;;;;5052389;28;20025;-51
2023/11/08 01:07:01;;;;;;;4.72;4.10;;;;;;;;;;5052267;28;20386;-54
2023/11/08 01:09:27;;;;;;;4.82;3.92;;;;;;;;;;5051841;28;20032;-54
2023/11/08 01:11:54;;;;;;;4.50;4.10;;;;;;;;;;5052216;28;20041;-51
2023/11/08 01:14:21;;;;;;;5.55;4.28;;;;;;;;;;5052212;28;20024;-52
2023/11/08 01:16:47;;;;;;;5.72;4.03;;;;;;;;;;5051897;28;20018;-50
2023/11/08 01:19:13;;;;;;;5.38;4.20;;;;;;;;;;5039543;28;20036;-51
2023/11/08 01:21:40;;;;;;;4.78;4.13;;;;;;;;;;5031964;28;20022;-50
2023/11/08 01:24:06;;;;;;;5.50;4.47;;;;;;;;;;5031777;28;20038;-50
2023/11/08 01:26:32;;;;;;;5.50;4.45;;;;;;;;;;5031841;28;20053;-50
2023/11/08 01:28:59;;;;;;;4.47;4.05;;;;;;;;;;5031841;28;20067;-50
2023/11/08 01:31:25;;;;;;;8.25;4.28;;;;;;;;;;5031737;28;20032;-51
2023/11/08 01:33:51;;;;;;;5.05;4.55;;;;;;;;;;5032026;28;20025;-49
2023/11/08 01:36:17;;;;;;;4.90;4.05;;;;;;;;;;5031873;28;20080;-49
2023/11/08 01:38:45;;;;;;;7.10;4.07;;;;;;;;;;5031592;28;20030;-53
2023/11/08 01:41:12;;;;;;;5.30;4.30;;;;;;;;;;5031521;28;20091;-52
2023/11/08 01:43:38;;;;;;;4.95;4.45;;;;;;;;;;5031768;28;20372;-51
2023/11/08 01:46:12;;;;;;;6.03;3.92;;;;;;;;;;5031557;28;20471;-53
2023/11/08 01:48:39;;;;;;;4.30;3.90;;;;;;;;;;5031783;28;20018;-51
2023/11/08 01:51:06;;;;;;;4.53;3.38;;;;;;;;;;5031674;28;20033;-51
2023/11/08 01:53:35;;;;;;;6.03;3.85;;;;;;;;;;5031683;28;20029;-52
2023/11/08 01:56:03;;;;;;;5.50;3.70;;;;;;;;;;5030333;28;20127;-50
2023/11/08 01:58:31;;;;;;;4.50;3.78;;;;;;;;;;5031694;28;20044;-53
2023/11/08 02:00:57;;;;;;;5.32;3.67;;;;;;;;;;5031344;28;20053;-49
2023/11/08 02:03:23;;;;;;;4.30;3.80;;;;;;;;;;5031793;28;20359;-49
2023/11/08 02:05:50;;;;;;;4.93;3.42;;;;;;;;;;5033314;28;20029;-50
2023/11/08 02:08:16;;;;;;;5.88;3.65;;;;;;;;;;5033998;28;20049;-51
2023/11/08 02:10:42;;;;;;;5.18;3.47;;;;;;;;;;5035371;28;20068;-49
2023/11/08 02:13:08;;;;;;;5.35;3.42;;;;;;;;;;5035315;28;20025;-50
2023/11/08 02:15:41;;;;;;;4.53;3.25;;;;;;;;;;5034345;28;20026;-53
2023/11/08 02:18:07;;;;;;;5.07;3.25;;;;;;;;;;5033435;28;20099;-55
2023/11/08 02:20:33;;;;;;;4.07;3.10;;;;;;;;;;5034404;28;20084;-52
2023/11/08 02:22:59;;;;;;;3.45;3.08;;;;;;;;;;5034418;28;20044;-50
2023/11/08 02:25:25;;;;;;;3.50;2.83;;;;;;;;;;5052710;28;20036;-50
2023/11/08 02:27:51;;;;;;;4.60;3.38;;;;;;;;;;5053992;28;20135;-54
2023/11/08 02:30:17;;;;;;;3.53;3.22;;;;;;;;;;5054275;28;20362;-48
2023/11/08 02:32:44;;;;;;;3.95;3.20;;;;;;;;;;5053712;28;20029;-52
2023/11/08 02:35:10;;;;;;;4.95;3.85;;;;;;;;;;5053929;28;20028;-49
2023/11/08 02:37:36;;;;;;;4.53;3.50;;;;;;;;;;5053772;28;20025;-50
2023/11/08 02:40:03;;;;;;;4.53;3.55;;;;;;;;;;5040957;28;20197;-53
2023/11/08 02:42:29;;;;;;;5.65;3.70;;;;;;;;;;5053814;28;20490;-54
2023/11/08 02:44:55;;;;;;;3.78;3.40;;;;;;;;;;5044655;28;20629;-54
2023/11/08 02:47:21;;;;;;;3.83;3.17;;;;;;;;;;5033924;28;20057;-54
2023/11/08 02:49:49;;;;;;;4.70;3.47;;;;;;;;;;5033784;28;20053;-48
2023/11/08 02:52:15;;;;;;;4.95;3.83;;;;;;;;;;5034103;28;20430;-53
2023/11/08 02:54:41;;;;;;;4.18;3.53;;;;;;;;;;5033820;28;20027;-51
2023/11/08 02:57:07;;;;;;;4.03;3.63;;;;;;;;;;5042911;28;20501;-50
2023/11/08 02:59:36;;;;;;;6.43;4.50;;;;;;;;;;5053863;28;20058;-53
2023/11/08 03:02:02;;;;;;;5.15;4.47;;;;;;;;;;5051845;28;20434;-50
2023/11/08 03:04:31;;;;;;;7.60;4.82;;;;;;;;;;5053068;28;20131;-53
2023/11/08 03:06:57;;;;;;;5.60;4.60;;;;;;;;;;5053334;28;20098;-53
2023/11/08 03:09:23;;;;;;;6.03;4.70;;;;;;;;;;5053447;28;20033;-50
2023/11/08 03:11:49;;;;;;;6.35;5.22;;;;;;;;;;5053449;28;20029;-50
2023/11/08 03:14:15;;;;;;;5.65;4.40;;;;;;;;;;5052125;28;20467;-48
2023/11/08 03:16:41;;;;;;;5.13;4.50;;;;;;;;;;5052430;28;20478;-48
2023/11/08 03:19:10;;;;;;;4.65;4.20;;;;;;;;;;5053178;28;20028;-50
2023/11/08 03:21:44;;;;;;;5.00;4.50;;;;;;;;;;5053165;28;20136;-49
2023/11/08 03:24:10;;;;;;;5.82;4.13;;;;;;;;;;5051825;28;20039;-51
2023/11/08 03:26:36;;;;;;;5.43;3.90;;;;;;;;;;5053022;28;20029;-52
2023/11/08 03:29:15;;;;;;;4.72;4.22;;;;;;;;;;5053103;28;20021;-49
2023/11/08 03:31:42;;;;;;;7.93;4.80;;;;;;;;;;5053008;28;20079;-50
2023/11/08 03:34:08;;;;;;;4.43;3.97;;;;;;;;;;5053266;28;20429;-50
2023/11/08 03:36:34;;;;;;;5.72;4.45;;;;;;;;;;5052989;28;20044;-49
2023/11/08 03:39:00;;;;;;;3.97;3.58;;;;;;;;;;5052725;28;20064;-51
2023/11/08 03:41:26;;;;;;;4.68;3.80;;;;;;;;;;5036841;28;20064;-49
2023/11/08 03:43:53;;;;;;;5.53;3.38;;;;;;;;;;5040909;28;20032;-50
2023/11/08 03:46:19;;;;;;;4.38;3.88;;;;;;;;;;5049675;28;20033;-49
2023/11/08 03:48:47;;;;;;;3.78;3.33;;;;;;;;;;5042782;28;20104;-52
2023/11/08 03:51:13;;;;;;;4.10;3.30;;;;;;;;;;5051962;28;20896;-50
2023/11/08 03:53:39;;;;;;;5.20;3.58;;;;;;;;;;5035437;28;20457;-49
2023/11/08 03:56:05;;;;;;;4.35;3.20;;;;;;;;;;5032577;28;20159;-50
2023/11/08 03:58:31;;;;;;;4.40;2.80;;;;;;;;;;5032964;28;20036;-48
2023/11/08 04:00:57;;;;;;;4.28;3.20;;;;;;;;;;5048320;28;20100;-48
2023/11/08 04:03:23;;;;;;;4.60;3.17;;;;;;;;;;5042932;28;20026;-53
2023/11/08 04:05:51;;;;;;;3.80;3.30;;;;;;;;;;5033090;28;20515;-54
2023/11/08 04:08:17;;;;;;;3.30;3.00;;;;;;;;;;5036867;28;20049;-53
2023/11/08 04:10:43;;;;;;;3.78;3.20;;;;;;;;;;5050273;28;20025;-51
2023/11/08 04:13:09;;;;;;;5.45;3.45;;;;;;;;;;5049161;28;20485;-53
2023/11/08 04:15:35;;;;;;;3.85;3.55;;;;;;;;;;5040893;28;20017;-49
2023/11/08 04:18:01;;;;;;;3.67;3.30;;;;;;;;;;5053097;28;20112;-52
2023/11/08 04:20:27;;;;;;;5.25;3.70;;;;;;;;;;5053026;28;20021;-49
2023/11/08 04:22:53;;;;;;;3.40;3.10;;;;;;;;;;5052864;28;20029;-53
2023/11/08 04:25:19;;;;;;;3.80;3.40;;;;;;;;;;5052634;28;20039;-54
2023/11/08 04:27:45;;;;;;;4.82;3.50;;;;;;;;;;5052341;28;20021;-51
2023/11/08 04:30:13;;;;;;;4.18;3.75;;;;;;;;;;5051999;28;20021;-53
2023/11/08 04:32:39;;;;;;;5.47;3.90;;;;;;;;;;5052527;28;20533;-53
2023/11/08 04:35:05;;;;;;;5.72;3.95;;;;;;;;;;5052869;28;20104;-51
2023/11/08 04:37:31;;;;;;;5.13;4.05;;;;;;;;;;5051251;28;20134;-49
2023/11/08 04:39:57;;;;;;;4.28;3.88;;;;;;;;;;5052495;28;20025;-50
2023/11/08 04:42:25;;;;;;;5.13;3.90;;;;;;;;;;5052174;28;20075;-50
2023/11/08 04:44:51;;;;;;;4.70;3.47;;;;;;;;;;5051920;28;20086;-51
2023/11/08 04:47:20;;;;;;;6.50;3.55;;;;;;;;;;5052608;28;20411;-51
2023/11/08 04:49:47;;;;;;;4.05;3.33;;;;;;;;;;5052648;28;20024;-49
2023/11/08 04:52:16;;;;;;;3.90;3.60;;;;;;;;;;5050994;28;20027;-51
2023/11/08 04:54:43;;;;;;;6.82;3.53;;;;;;;;;;5052322;28;20025;-53
2023/11/08 04:57:09;;;;;;;4.43;3.70;;;;;;;;;;5052284;28;20454;-49
2023/11/08 04:59:35;;;;;;;4.95;3.40;;;;;;;;;;5052276;28;20018;-52
2023/11/08 05:02:01;;;;;;;9.25;4.68;;;;;;;;;;5046829;28;20032;-49
2023/11/08 05:04:27;;;;;;;5.90;5.18;;;;;;;;;;5032255;28;20057;-51
2023/11/08 05:06:54;;;;;;;9.70;5.35;;;;;;;;;;5032567;28;20025;-49
2023/11/08 05:09:20;;;;;;;8.57;6.10;;;;;;;;;;5032060;28;20029;-50
2023/11/08 05:11:46;;;;;;;6.68;4.95;;;;;;;;;;5040247;28;20451;-51
2023/11/08 05:14:12;;;;;;;7.47;5.10;;;;;;;;;;5047409;28;20108;-48
2023/11/08 05:16:39;;;;;;;5.18;4.65;;;;;;;;;;5037008;28;20343;-49
2023/11/08 05:19:08;;;;;;;4.78;4.03;;;;;;;;;;5043862;28;20113;-49
2023/11/08 05:21:34;;;;;;;4.63;3.63;;;;;;;;;;5035695;28;20467;-50
2023/11/08 05:24:00;;;;;;;6.05;4.18;;;;;;;;;;5051355;28;20028;-50
2023/11/08 05:26:26;;;;;;;4.40;3.53;;;;;;;;;;5045718;28;20025;-50
2023/11/08 05:28:52;;;;;;;4.40;3.97;;;;;;;;;;5031965;28;20026;-49
2023/11/08 05:31:19;;;;;;;6.93;3.55;;;;;;;;;;5032185;28;20520;-51
2023/11/08 05:33:45;;;;;;;6.38;4.43;;;;;;;;;;5031802;28;20026;-50
2023/11/08 05:36:11;;;;;;;4.97;3.92;;;;;;;;;;5030739;28;20503;-51
2023/11/08 05:38:39;;;;;;;4.13;3.63;;;;;;;;;;5038048;28;20021;-49
2023/11/08 05:41:05;;;;;;;3.70;3.40;;;;;;;;;;5054411;28;20049;-50
2023/11/08 05:43:31;;;;;;;6.03;3.60;;;;;;;;;;5054494;28;20017;-48
2023/11/08 05:45:57;;;;;;;4.82;3.50;;;;;;;;;;5055440;28;20037;-50
2023/11/08 05:48:23;;;;;;;4.15;3.70;;;;;;;;;;5055700;28;20335;-52
2023/11/08 05:50:49;;;;;;;4.25;3.42;;;;;;;;;;5076143;28;20025;-49
2023/11/08 05:53:17;;;;;;;4.15;3.63;;;;;;;;;;5075949;28;20519;-49
2023/11/08 05:55:43;;;;;;;4.28;3.40;;;;;;;;;;5074521;28;20134;-49
2023/11/08 05:58:09;;;;;;;6.65;3.40;;;;;;;;;;5054079;28;20025;-52
2023/11/08 06:00:35;;;;;;;7.13;3.78;;;;;;;;;;5049219;28;20363;-51
2023/11/08 06:03:01;;;;;;;5.57;3.70;;;;;;;;;;5047929;28;20025;-50
2023/11/08 06:05:28;;;;;;;5.30;3.63;;;;;;;;;;5046294;28;20044;-49
2023/11/08 06:07:56;;;;;;;5.45;3.45;;;;;;;;;;5038044;28;20424;-48
2023/11/08 06:10:22;;;;;;;5.15;4.07;;;;;;;;;;5043465;28;20086;-55
2023/11/08 06:12:48;;;;;;;5.57;4.20;;;;;;;;;;5038491;28;20028;-54
2023/11/08 06:15:16;;;;;;;5.55;4.35;;;;;;;;;;5055223;28;20053;-54
2023/11/08 06:17:42;;;;;;;6.00;4.05;;;;;;;;;;5044862;28;20462;-51
2023/11/08 06:20:11;;;;;;;7.25;4.65;;;;;;;;;;5035392;28;20025;-54
2023/11/08 06:22:37;;;;;;;5.15;4.15;;;;;;;;;;5034391;28;20025;-53
2023/11/08 06:25:03;;;;;;;6.30;4.50;;;;;;;;;;5047961;28;20033;-52
2023/11/08 06:27:29;;;;;;;7.13;4.30;;;;;;;;;;5053789;28;20033;-51
2023/11/08 06:29:55;;;;;;;6.93;4.47;;;;;;;;;;5047588;28;20079;-50
2023/11/08 06:32:21;;;;;;;7.45;4.45;;;;;;;;;;5044639;28;20036;-48
2023/11/08 06:34:47;;;;;;;8.57;4.65;;;;;;;;;;5058365;28;20112;-49
2023/11/08 06:37:13;;;;;;;5.97;4.43;;;;;;;;;;5044182;28;20456;-48
2023/11/08 06:39:40;;;;;;;6.43;5.22;;;;;;;;;;5043568;28;20100;-51
2023/11/08 06:42:07;;;;;;;7.30;5.40;;;;;;;;;;5034281;28;20059;-49
2023/11/08 06:44:33;;;;;;;8.32;5.65;;;;;;;;;;5052539;28;20041;-48
2023/11/08 06:46:59;;;;;;;7.13;5.10;;;;;;;;;;5042333;28;21523;-48
2023/11/08 06:49:25;;;;;;;7.40;5.35;;;;;;;;;;5038488;28;20029;-63
2023/11/08 06:51:51;;;;;;;7.07;4.80;;;;;;;;;;5034519;28;20095;-63
2023/11/08 06:54:17;;;;;;;5.88;5.00;;;;;;;;;;5041523;28;20033;-63
2023/11/08 06:56:43;;;;;;;7.95;4.88;;;;;;;;;;5047695;28;20029;-63
2023/11/08 06:59:09;;;;;;;6.13;4.60;;;;;;;;;;5051355;28;20021;-63
2023/11/08 07:01:35;;;;;;;7.30;4.65;;;;;;;;;;5038843;28;20033;-63
2023/11/08 07:04:01;;;;;;;6.43;4.53;;;;;;;;;;5045271;28;20036;-63
2023/11/08 07:06:27;;;;;;;5.00;4.00;;;;;;;;;;5035788;28;20451;-63
2023/11/08 07:08:53;;;;;;;5.95;3.90;;;;;;;;;;5035185;28;20101;-63
2023/11/08 07:11:19;;;;;;;6.05;4.03;;;;;;;;;;5046220;28;20028;-63
2023/11/08 07:13:45;;;;;;;5.75;3.80;;;;;;;;;;5034581;28;20070;-64
2023/11/08 07:16:11;;;;;;;8.05;3.72;;;;;;;;;;5043591;28;20065;-63
2023/11/08 07:18:37;;;;;;;7.28;3.40;;;;;;;;;;5041784;28;20025;-51
2023/11/08 07:21:03;;;;;;;4.15;3.63;;;;;;;;;;5034282;28;20025;-50
2023/11/08 07:23:29;;;;;;;5.93;3.78;;;;;;;;;;5037556;28;20037;-49
2023/11/08 07:25:55;;;;;;;5.78;3.70;;;;;;;;;;5032615;28;20063;-54
2023/11/08 07:28:21;;;;;;;5.82;3.55;;;;;;;;;;5034175;28;20049;-49
2023/11/08 07:30:47;;;;;;;5.50;3.80;;;;;;;;;;5033954;28;20061;-52
2023/11/08 07:33:13;;;;;;;3.85;2.97;;;;;;;;;;5033860;28;20494;-50
2023/11/08 07:35:41;;;;;;;6.55;3.63;;;;;;;;;;5032501;28;20029;-53
2023/11/08 07:38:08;;;;;;;3.95;3.55;;;;;;;;;;5033926;28;20090;-49
2023/11/08 07:40:34;;;;;;;5.05;3.70;;;;;;;;;;5033339;28;20336;-48
2023/11/08 07:43:00;;;;;;;4.47;3.53;;;;;;;;;;5033832;28;20040;-48
2023/11/08 07:45:26;;;;;;;5.85;4.57;;;;;;;;;;5033481;28;20030;-54
2023/11/08 07:47:52;;;;;;;6.18;4.53;;;;;;;;;;5033817;28;20036;-54
2023/11/08 07:50:19;;;;;;;7.47;4.30;;;;;;;;;;5048838;28;20368;-54
2023/11/08 07:52:45;;;;;;;5.03;4.50;;;;;;;;;;5033856;28;20109;-50
2023/11/08 07:55:11;;;;;;;5.30;4.60;;;;;;;;;;5033481;28;20108;-55
2023/11/08 07:57:38;;;;;;;7.25;4.05;;;;;;;;;;5033488;28;20471;-53
2023/11/08 08:00:08;;;;;;;5.25;3.80;;;;;;;;;;5033543;28;20045;-54
2023/11/08 08:02:34;;;;;;;12.18;4.97;;;;;;;;;;5032869;28;20502;-52
2023/11/08 08:05:00;;;;;;;13.88;11.18;;;;;;;;;;5042155;28;20068;-67
2023/11/08 08:07:27;;;;;;;11.73;8.40;;;;;;;;;;5036116;28;20109;-62
2023/11/08 08:09:54;;;;;;;10.75;8.40;;;;;;;;;;5044494;28;20485;-63
2023/11/08 08:12:20;;;;;;;19.70;8.40;;;;;;;;;;5051129;28;20044;-63
2023/11/08 08:14:46;;;;;;;12.07;7.85;;;;;;;;;;5039602;28;20512;-63
2023/11/08 08:17:12;;;;;;;9.27;8.35;;;;;;;;;;5047292;28;20096;-61
2023/11/08 08:19:38;;;;;;;11.38;7.38;;;;;;;;;;5040107;28;20029;-62
2023/11/08 08:22:05;;;;;;;10.15;7.82;;;;;;;;;;5033974;28;20030;-65
2023/11/08 08:24:31;;;;;;;11.73;7.85;;;;;;;;;;5042039;28;20124;-60
2023/11/08 08:26:58;;;;;;;11.52;8.73;;;;;;;;;;5039360;28;20028;-64
2023/11/08 08:29:26;;;;;;;11.23;8.40;;;;;;;;;;5040852;28;20022;-61
2023/11/08 08:31:52;;;;;;;13.13;8.52;;;;;;;;;;5038802;28;20416;-62
2023/11/08 08:34:18;;;;;;;10.45;6.70;;;;;;;;;;5033366;28;20037;-65
2023/11/08 08:36:44;;;;;;;7.22;5.68;;;;;;;;;;5047091;28;20362;-61
2023/11/08 08:39:15;;;;;;;7.85;6.32;;;;;;;;;;5050119;28;20033;-64
2023/11/08 08:41:43;;;;;;;10.65;5.70;;;;;;;;;;5036894;28;20045;-62
2023/11/08 08:44:09;;;;;;;8.35;6.35;;;;;;;;;;5035871;28;20037;-66
2023/11/08 08:46:34;;;;;;;15.73;8.20;;;;;;;;;;5031942;28;20029;-65
2023/11/08 08:49:00;;;;;;;14.10;7.60;;;;;;;;;;5031285;28;20482;-66
2023/11/08 08:51:27;;;;;;;9.40;7.28;;;;;;;;;;5039060;28;20048;-62
2023/11/08 08:54:11;;;;;;;12.45;6.40;;;;;;;;;;5037161;28;20478;-62
2023/11/08 08:56:37;;;;;;;18.10;8.47;;;;;;;;;;5049651;28;20163;-68
2023/11/08 08:59:03;;;;;;;7.65;6.90;;;;;;;;;;5051622;28;20562;-69
2023/11/08 09:01:30;;;;;;;14.98;7.05;;;;;;;;;;5037047;28;20029;-66
2023/11/08 09:03:56;;;;;;;10.50;6.32;;;;;;;;;;5051835;28;20528;-68
2023/11/08 09:06:22;;;;;;;9.63;6.85;;;;;;;;;;5046519;28;20040;-69
2023/11/08 09:08:48;;;;;;;8.52;6.90;;;;;;;;;;5035901;28;20029;-68
2023/11/08 09:11:14;;;;;;;10.90;6.78;;;;;;;;;;5042334;28;20375;-62
2023/11/08 09:13:41;;;;;;;11.50;6.55;;;;;;;;;;5052112;28;20033;-63
2023/11/08 09:16:07;;;;;;;6.22;5.55;;;;;;;;;;5046543;28;20017;-69
2023/11/08 09:18:36;;;;;;;7.30;5.88;;;;;;;;;;5048102;28;20033;-69
2023/11/08 09:21:03;;;;;;;10.63;6.47;;;;;;;;;;5048750;28;20074;-70
2023/11/08 09:23:31;;;;;;;10.52;6.95;;;;;;;;;;5040094;28;20084;-68
2023/11/08 09:25:57;;;;;;;11.93;7.28;;;;;;;;;;5035546;28;20026;-70
2023/11/08 09:28:24;;;;;;;9.18;7.95;;;;;;;;;;5036928;28;20030;-65
2023/11/08 09:30:51;;;;;;;11.18;8.13;;;;;;;;;;5043813;28;20028;-60
2023/11/08 09:33:17;;;;;;;12.45;7.70;;;;;;;;;;5036856;28;20017;-62
2023/11/08 09:35:43;;;;;;;9.38;7.85;;;;;;;;;;5046573;28;20463;-64
2023/11/08 09:38:09;;;;;;;10.40;6.82;;;;;;;;;;5032314;28;20023;-65
2023/11/08 09:40:36;;;;;;;11.82;7.35;;;;;;;;;;5032688;28;20048;-62
2023/11/08 09:43:05;;;;;;;31.27;10.85;;;;;;;;;;5048187;28;20489;-68
2023/11/08 09:45:31;;;;;;;22.35;8.85;;;;;;;;;;5046476;28;20037;-68
2023/11/08 09:47:58;;;;;;;11.00;7.07;;;;;;;;;;5050233;28;20051;-67
2023/11/08 09:50:25;;;;;;;8.68;6.85;;;;;;;;;;5038720;28;20071;-72
2023/11/08 09:52:52;;;;;;;15.13;8.80;;;;;;;;;;5049081;28;20390;-63
2023/11/08 09:55:18;;;;;;;9.30;5.95;;;;;;;;;;5040884;28;20174;-65
2023/11/08 09:57:44;;;;;;;9.77;7.20;;;;;;;;;;5040830;28;20036;-62
2023/11/08 10:00:11;;;;;;;11.95;8.88;;;;;;;;;;5035599;28;20082;-62
2023/11/08 10:02:40;;;;;;;10.93;7.65;;;;;;;;;;5046274;28;20029;-69
2023/11/08 10:05:06;;;;;;;19.35;8.55;;;;;;;;;;5035372;28;20045;-65
2023/11/08 10:07:33;;;;;;;25.23;9.63;;;;;;;;;;5045220;28;20037;-66
2023/11/08 10:09:59;;;;;;;29.10;8.90;;;;;;;;;;5051029;28;20040;-72
2023/11/08 10:12:25;;;;;;;10.52;7.78;;;;;;;;;;5044729;28;20018;-68
2023/11/08 10:14:58;;;;;;;15.10;8.40;;;;;;;;;;5049737;28;20079;-67
2023/11/08 10:17:37;;;;;;;25.90;9.80;;;;;;;;;;5041521;28;20017;-67
2023/11/08 10:20:07;;;;;;;14.68;8.70;;;;;;;;;;5047952;28;20048;-62
2023/11/08 10:22:33;;;;;;;9.27;7.28;;;;;;;;;;5047171;28;20028;-65
2023/11/08 10:25:00;;;;;;;9.25;7.75;;;;;;;;;;5034865;28;20033;-63
2023/11/08 10:27:27;;;;;;;9.20;7.82;;;;;;;;;;5038600;28;20020;-62
2023/11/08 10:29:56;;;;;;;12.30;7.90;;;;;;;;;;5048956;28;20104;-65
2023/11/08 10:32:24;;;;;;;8.75;7.85;;;;;;;;;;5044906;28;20025;-62
2023/11/08 10:34:51;;;;;;;10.30;7.82;;;;;;;;;;5044968;28;20025;-70
2023/11/08 10:37:27;;;;;;;14.20;8.02;;;;;;;;;;5043433;28;20025;-66
2023/11/08 10:39:54;;;;;;;10.13;8.75;;;;;;;;;;5041172;28;20076;-63
2023/11/08 10:42:21;;;;;;;17.70;9.68;;;;;;;;;;5049243;28;20037;-67
2023/11/08 10:44:47;;;;;;;40.03;13.23;;;;;;;;;;5052890;28;20048;-65
2023/11/08 10:47:15;;;;;;;11.40;8.82;;;;;;;;;;5040872;28;20099;-64
2023/11/08 10:49:41;;;;;;;13.07;9.05;;;;;;;;;;5049164;28;20028;-63
2023/11/08 10:52:10;;;;;;;13.52;9.45;;;;;;;;;;5044767;28;20413;-63
2023/11/08 10:54:38;;;;;;;11.73;9.38;;;;;;;;;;5042974;28;20505;-63
2023/11/08 10:57:06;;;;;;;12.35;9.32;;;;;;;;;;5040191;28;20457;-64
2023/11/08 10:59:35;;;;;;;11.13;9.55;;;;;;;;;;5043105;28;20525;-60
2023/11/08 11:02:05;;;;;;;12.77;9.95;;;;;;;;;;5049878;28;20021;-68
2023/11/08 11:04:31;;;;;;;18.23;9.40;;;;;;;;;;5040126;28;20040;-64
2023/11/08 11:06:58;;;;;;;11.55;9.13;;;;;;;;;;5034565;28;20116;-64
2023/11/08 11:09:24;;;;;;;10.55;8.57;;;;;;;;;;5034343;28;20025;-64
2023/11/08 11:11:54;;;;;;;10.68;7.70;;;;;;;;;;5035172;28;20091;-64
2023/11/08 11:14:31;;;;;;;8.95;7.97;;;;;;;;;;5034412;28;20526;-64
2023/11/08 11:17:02;;;;;;;21.23;10.15;;;;;;;;;;5034650;28;20101;-64
2023/11/08 11:19:29;;;;;;;9.57;7.80;;;;;;;;;;5034518;28;20026;-64
2023/11/08 11:21:58;;;;;;;9.70;8.48;;;;;;;;;;5033930;28;20442;-64
2023/11/08 11:24:33;;;;;;;15.23;9.38;;;;;;;;;;5034078;28;20018;-64
2023/11/08 11:27:00;;;;;;;11.02;8.60;;;;;;;;;;5034269;28;20432;-64
2023/11/08 11:29:30;;;;;;;11.07;9.52;;;;;;;;;;5033989;28;20505;-64
2023/11/08 11:31:56;;;;;;;8.40;7.45;;;;;;;;;;5033888;28;20103;-64
2023/11/08 11:34:26;;;;;;;8.50;7.25;;;;;;;;;;5033916;28;20039;-64
2023/11/08 11:37:13;;;;;;;11.10;8.77;;;;;;;;;;5034057;28;20040;-64
2023/11/08 11:40:03;;;;;;;9.43;7.97;;;;;;;;;;5033176;28;20475;-64
2023/11/08 11:42:29;;;;;;;11.73;7.85;;;;;;;;;;5029619;28;20041;-64
2023/11/08 11:45:00;;;;;;;8.20;7.25;;;;;;;;;;5033707;28;20036;-64
2023/11/08 11:47:29;;;;;;;9.50;8.02;;;;;;;;;;5033849;28;20487;-64
2023/11/08 11:50:07;;;;;;;11.38;6.90;;;;;;;;;;5032235;28;20026;-64
2023/11/08 11:52:33;;;;;;;10.45;7.20;;;;;;;;;;5033545;28;20056;-64
2023/11/08 11:55:00;;;;;;;9.13;7.32;;;;;;;;;;5032144;28;20032;-64
2023/11/08 11:57:27;;;;;;;9.13;6.60;;;;;;;;;;5033626;28;20040;-64
2023/11/08 11:59:54;;;;;;;10.50;8.93;;;;;;;;;;5033507;28;20056;-64
2023/11/08 12:02:21;;;;;;;10.50;7.93;;;;;;;;;;5033512;28;20446;-64
2023/11/08 12:04:48;;;;;;;8.68;6.60;;;;;;;;;;5033237;28;20064;-64
2023/11/08 12:07:15;;;;;;;8.75;6.43;;;;;;;;;;5033624;28;20029;-64
2023/11/08 12:09:41;;;;;;;11.55;6.97;;;;;;;;;;5033225;28;20026;-64
2023/11/08 12:12:08;;;;;;;10.57;7.05;;;;;;;;;;5033190;28;20026;-64
2023/11/08 12:14:34;;;;;;;11.07;6.20;;;;;;;;;;5033611;28;20105;-64
2023/11/08 12:17:03;;;;;;;14.75;6.80;;;;;;;;;;5033080;28;20053;-64
2023/11/08 12:19:30;;;;;;;9.55;6.40;;;;;;;;;;5032983;28;20018;-64
2023/11/08 12:21:57;;;;;;;13.20;5.75;;;;;;;;;;5033083;28;20080;-64
2023/11/08 12:24:23;;;;;;;10.13;6.15;;;;;;;;;;5032887;28;20029;-64
2023/11/08 12:26:49;;;;;;;9.35;6.45;;;;;;;;;;5032906;28;20025;-64
2023/11/08 12:29:18;;;;;;;13.50;6.68;;;;;;;;;;5031492;28;20033;-64
2023/11/08 12:31:45;;;;;;;12.63;6.28;;;;;;;;;;5031306;28;20083;-64
2023/11/08 12:34:11;;;;;;;7.85;5.93;;;;;;;;;;5032857;28;20056;-64
2023/11/08 12:36:37;;;;;;;9.52;6.63;;;;;;;;;;5033103;28;20026;-64
2023/11/08 12:39:12;;;;;;;7.75;5.53;;;;;;;;;;5032883;28;20021;-64
2023/11/08 12:41:45;;;;;;;7.97;6.03;;;;;;;;;;5032560;28;20045;-64
2023/11/08 12:44:15;;;;;;;14.95;7.97;;;;;;;;;;5032466;28;20022;-64
2023/11/08 12:46:48;;;;;;;8.52;6.20;;;;;;;;;;5032591;28;20033;-63
2023/11/08 12:49:15;;;;;;;10.07;6.25;;;;;;;;;;5032039;28;20383;-64
2023/11/08 12:51:41;;;;;;;10.07;6.20;;;;;;;;;;5032484;28;20045;-64
2023/11/08 12:54:09;;;;;;;8.55;6.57;;;;;;;;;;5032460;28;20038;-63
2023/11/08 12:56:38;;;;;;;6.65;5.97;;;;;;;;;;5032814;28;20171;-65
2023/11/08 12:59:18;;;;;;;7.65;6.03;;;;;;;;;;5032513;28;20036;-64
2023/11/08 13:01:45;;;;;;;6.20;5.60;;;;;;;;;;5032243;28;20120;-64
2023/11/08 13:04:12;;;;;;;12.32;5.60;;;;;;;;;;5032176;28;20021;-64
2023/11/08 13:06:38;;;;;;;6.13;5.53;;;;;;;;;;5032203;28;20029;-62
2023/11/08 13:09:04;;;;;;;8.73;5.80;;;;;;;;;;5038374;28;20491;-64
2023/11/08 13:11:33;;;;;;;9.63;6.75;;;;;;;;;;5052704;28;20107;-64
2023/11/08 13:14:00;;;;;;;8.23;7.22;;;;;;;;;;5046915;28;20071;-60
2023/11/08 13:16:27;;;;;;;7.80;6.20;;;;;;;;;;5052107;28;20112;-63
2023/11/08 13:18:53;;;;;;;8.23;6.30;;;;;;;;;;5052748;28;20033;-66
2023/11/08 13:21:20;;;;;;;9.48;5.70;;;;;;;;;;5051720;28;20021;-64
2023/11/08 13:23:46;;;;;;;11.48;5.97;;;;;;;;;;5051219;28;20025;-64
2023/11/08 13:26:14;;;;;;;12.20;6.78;;;;;;;;;;5037360;28;20033;-64
2023/11/08 13:28:40;;;;;;;6.90;5.68;;;;;;;;;;5030825;28;20096;-63
2023/11/08 13:31:06;;;;;;;8.30;5.82;;;;;;;;;;5032019;28;20086;-63
2023/11/08 13:33:32;;;;;;;12.57;6.03;;;;;;;;;;5047251;28;20026;-67
2023/11/08 13:35:58;;;;;;;9.55;6.20;;;;;;;;;;5031763;28;20243;-62
2023/11/08 13:38:24;;;;;;;7.97;6.13;;;;;;;;;;5043281;28;20033;-67
2023/11/08 13:40:50;;;;;;;7.63;6.13;;;;;;;;;;5050131;28;20052;-63
2023/11/08 13:43:16;;;;;;;7.60;5.93;;;;;;;;;;5035738;28;20021;-61
2023/11/08 13:45:42;;;;;;;9.77;6.15;;;;;;;;;;5051471;28;20032;-65
2023/11/08 13:48:08;;;;;;;9.45;5.97;;;;;;;;;;5045569;28;20021;-61
2023/11/08 13:50:34;;;;;;;7.00;5.97;;;;;;;;;;5051460;28;20025;-61
2023/11/08 13:53:01;;;;;;;7.85;5.82;;;;;;;;;;5051568;28;20100;-59
2023/11/08 13:55:27;;;;;;;8.40;6.57;;;;;;;;;;5051504;28;20032;-59
2023/11/08 13:57:53;;;;;;;26.50;6.63;;;;;;;;;;5051639;28;20421;-62
2023/11/08 14:00:20;;;;;;;11.15;6.22;;;;;;;;;;5051627;28;20478;-60
2023/11/08 14:02:48;;;;;;;11.35;6.35;;;;;;;;;;5054576;28;20419;-63
2023/11/08 14:05:15;;;;;;;8.85;6.75;;;;;;;;;;5050196;28;20116;-68
2023/11/08 14:07:41;;;;;;;12.70;6.43;;;;;;;;;;5056080;28;20108;-65
2023/11/08 14:10:07;;;;;;;11.80;7.25;;;;;;;;;;5055219;28;20106;-65
2023/11/08 14:12:33;;;;;;;11.35;6.05;;;;;;;;;;5054914;28;20029;-67
2023/11/08 14:14:59;;;;;;;6.65;5.95;;;;;;;;;;5055339;28;20025;-69
2023/11/08 14:17:25;;;;;;;10.25;6.60;;;;;;;;;;5053787;28;20154;-67
2023/11/08 14:19:54;;;;;;;9.95;6.25;;;;;;;;;;5055042;28;20131;-72
2023/11/08 14:22:25;;;;;;;8.43;6.72;;;;;;;;;;5055200;28;20090;-69
2023/11/08 14:24:51;;;;;;;10.02;6.68;;;;;;;;;;5053689;28;20135;-68
2023/11/08 14:27:18;;;;;;;8.85;6.68;;;;;;;;;;5052450;28;20205;-53
2023/11/08 14:29:44;;;;;;;9.18;6.95;;;;;;;;;;5050505;28;20534;-54
2023/11/08 14:32:10;;;;;;;10.40;7.28;;;;;;;;;;5057184;28;20052;-55
2023/11/08 14:34:37;;;;;;;10.10;7.25;;;;;;;;;;5052662;28;20029;-66
2023/11/08 14:37:03;;;;;;;10.18;7.40;;;;;;;;;;5049488;28;20569;-67